createdAt,value
2023-04-21T00:00:35.024Z,10.02
2023-04-21T00:01:39.650Z,10.02
2023-04-21T00:02:44.079Z,10.02
2023-04-21T00:03:48.258Z,10.00
2023-04-21T00:04:52.256Z,9.97
2023-04-21T00:05:56.863Z,9.97
2023-04-21T00:07:00.830Z,9.90
2023-04-21T00:08:05.262Z,9.91
2023-04-21T00:09:09.795Z,9.90
2023-04-21T00:10:14.119Z,9.91
2023-04-21T00:11:18.696Z,9.94
2023-04-21T00:12:22.786Z,9.95
2023-04-21T00:13:27.111Z,9.96
2023-04-21T00:14:31.213Z,9.95
2023-04-21T00:15:35.581Z,9.95
2023-04-21T00:16:40.168Z,9.96
2023-04-21T00:17:44.490Z,9.98
2023-04-21T00:18:48.794Z,10.00
2023-04-21T00:19:53.375Z,9.95
2023-04-21T00:20:57.463Z,9.96
2023-04-21T00:22:01.833Z,9.98
2023-04-21T00:23:09.430Z,9.97
2023-04-21T00:24:08.288Z,9.98
2023-04-21T00:25:12.637Z,9.94
2023-04-21T00:26:17.221Z,9.94
2023-04-21T00:27:21.542Z,9.93
2023-04-21T00:28:25.944Z,9.96
2023-04-21T00:29:29.961Z,9.94
2023-04-21T00:30:30.613Z,9.96
2023-04-21T00:31:34.491Z,9.91
2023-04-21T00:32:39.105Z,9.89
2023-04-21T00:33:43.360Z,9.86
2023-04-21T00:34:47.707Z,9.82
2023-04-21T00:35:52.052Z,9.82
2023-04-21T00:36:56.123Z,9.85
2023-04-21T00:38:00.485Z,9.85
2023-04-21T00:39:04.829Z,9.88
2023-04-21T00:40:05.917Z,9.83
2023-04-21T00:41:13.209Z,9.83
2023-04-21T00:42:17.574Z,9.93
2023-04-21T00:43:22.127Z,9.92
2023-04-21T00:44:25.946Z,9.93
2023-04-21T00:45:30.315Z,9.90
2023-04-21T00:46:34.962Z,9.86
2023-04-21T00:47:39.014Z,9.81
2023-04-21T00:48:43.326Z,9.80
2023-04-21T00:49:47.652Z,9.82
2023-04-21T00:50:52.505Z,9.84
2023-04-21T00:51:56.571Z,9.83
2023-04-21T00:53:00.920Z,9.84
2023-04-21T00:54:04.995Z,9.81
2023-04-21T00:55:09.340Z,9.79
2023-04-21T00:56:13.698Z,9.78
2023-04-21T00:57:18.289Z,9.77
2023-04-21T00:58:22.356Z,9.71
2023-04-21T00:59:26.710Z,9.62
2023-04-21T01:00:32.940Z,9.64
2023-04-21T01:01:36.433Z,9.65
2023-04-21T01:02:40.877Z,9.65
2023-04-21T01:03:45.464Z,9.65
2023-04-21T01:04:49.659Z,9.64
2023-04-21T01:05:53.991Z,9.70
2023-04-21T01:06:58.057Z,9.73
2023-04-21T01:08:02.652Z,9.78
2023-04-21T01:09:07.247Z,9.77
2023-04-21T01:10:11.321Z,9.77
2023-04-21T01:11:15.390Z,9.73
2023-04-21T01:12:19.732Z,9.66
2023-04-21T01:13:24.635Z,9.60
2023-04-21T01:14:28.734Z,9.61
2023-04-21T01:15:33.052Z,9.64
2023-04-21T01:16:37.229Z,9.64
2023-04-21T01:17:41.816Z,9.66
2023-04-21T01:18:46.319Z,9.70
2023-04-21T01:19:50.392Z,9.66
2023-04-21T01:20:54.481Z,9.68
2023-04-21T01:21:58.817Z,9.67
2023-04-21T01:23:03.144Z,9.64
2023-04-21T01:24:07.736Z,9.63
2023-04-21T01:25:11.811Z,9.63
2023-04-21T01:26:16.672Z,9.57
2023-04-21T01:27:21.000Z,9.56
2023-04-21T01:28:25.071Z,9.57
2023-04-21T01:29:29.145Z,9.57
2023-04-21T01:30:35.010Z,9.54
2023-04-21T01:31:38.880Z,9.58
2023-04-21T01:32:43.254Z,9.58
2023-04-21T01:33:47.750Z,9.61
2023-04-21T01:34:52.102Z,9.60
2023-04-21T01:35:56.670Z,9.59
2023-04-21T01:37:01.014Z,9.63
2023-04-21T01:38:04.842Z,9.56
2023-04-21T01:39:09.176Z,9.52
2023-04-21T01:40:13.785Z,9.45
2023-04-21T01:41:18.107Z,9.47
2023-04-21T01:42:22.452Z,9.49
2023-04-21T01:43:26.884Z,9.50
2023-04-21T01:44:31.483Z,9.52
2023-04-21T01:45:35.687Z,9.51
2023-04-21T01:46:39.881Z,9.51
2023-04-21T01:47:43.981Z,9.49
2023-04-21T01:48:48.275Z,9.49
2023-04-21T01:49:52.608Z,9.48
2023-04-21T01:50:57.226Z,9.49
2023-04-21T01:52:01.588Z,9.48
2023-04-21T01:53:05.920Z,9.53
2023-04-21T01:54:10.257Z,9.53
2023-04-21T01:55:14.564Z,9.50
2023-04-21T01:56:18.644Z,9.55
2023-04-21T01:57:23.248Z,9.54
2023-04-21T01:58:27.586Z,9.54
2023-04-21T01:59:31.672Z,9.53
2023-04-21T02:00:37.276Z,9.48
2023-04-21T02:01:41.385Z,9.46
2023-04-21T02:02:46.153Z,9.47
2023-04-21T02:03:50.526Z,9.48
2023-04-21T02:04:54.655Z,9.48
2023-04-21T02:05:58.959Z,9.46
2023-04-21T02:07:03.082Z,9.47
2023-04-21T02:08:07.371Z,9.47
2023-04-21T02:09:11.702Z,9.43
2023-04-21T02:10:16.301Z,9.44
2023-04-21T02:11:20.645Z,9.45
2023-04-21T02:12:25.249Z,9.45
2023-04-21T02:13:29.048Z,9.44
2023-04-21T02:14:33.654Z,9.43
2023-04-21T02:15:38.009Z,9.43
2023-04-21T02:16:42.364Z,9.45
2023-04-21T02:17:46.424Z,9.44
2023-04-21T02:18:50.738Z,9.50
2023-04-21T02:19:55.365Z,9.52
2023-04-21T02:20:59.660Z,9.49
2023-04-21T02:22:04.008Z,9.49
2023-04-21T02:23:08.076Z,9.50
2023-04-21T02:24:12.686Z,9.51
2023-04-21T02:25:16.997Z,9.51
2023-04-21T02:26:21.077Z,9.53
2023-04-21T02:27:25.690Z,9.55
2023-04-21T02:28:30.013Z,9.58
2023-04-21T02:29:34.606Z,9.60
2023-04-21T02:30:41.424Z,9.63
2023-04-21T02:31:56.634Z,9.66
2023-04-21T02:32:48.188Z,9.66
2023-04-21T02:33:52.702Z,9.68
2023-04-21T02:34:57.068Z,9.72
2023-04-21T02:36:01.390Z,9.75
2023-04-21T02:37:05.487Z,9.76
2023-04-21T02:38:10.338Z,9.79
2023-04-21T02:39:14.432Z,9.80
2023-04-21T02:40:18.505Z,9.83
2023-04-21T02:41:22.848Z,9.84
2023-04-21T02:42:27.212Z,9.86
2023-04-21T02:43:31.516Z,9.87
2023-04-21T02:44:35.404Z,9.85
2023-04-21T02:45:37.268Z,9.83
2023-04-21T02:46:41.959Z,9.85
2023-04-21T02:47:45.982Z,9.86
2023-04-21T02:48:50.581Z,9.85
2023-04-21T02:49:55.120Z,9.86
2023-04-21T02:50:58.985Z,9.84
2023-04-21T02:52:03.293Z,9.86
2023-04-21T02:53:07.898Z,9.87
2023-04-21T02:54:12.208Z,9.87
2023-04-21T02:55:15.561Z,9.85
2023-04-21T02:56:20.903Z,9.86
2023-04-21T02:57:25.226Z,9.83
2023-04-21T02:58:29.567Z,9.84
2023-04-21T02:59:33.920Z,9.83
2023-04-21T03:00:38.092Z,9.82
2023-04-21T03:01:38.638Z,9.81
2023-04-21T03:02:42.944Z,9.81
2023-04-21T03:03:47.155Z,9.79
2023-04-21T03:04:51.400Z,9.75
2023-04-21T03:05:55.749Z,9.69
2023-04-21T03:07:00.208Z,9.70
2023-04-21T03:08:04.196Z,9.69
2023-04-21T03:09:08.769Z,9.68
2023-04-21T03:10:13.711Z,9.65
2023-04-21T03:11:17.273Z,9.62
2023-04-21T03:12:21.853Z,9.59
2023-04-21T03:13:25.939Z,9.54
2023-04-21T03:14:30.526Z,9.53
2023-04-21T03:15:34.606Z,9.54
2023-04-21T03:16:39.226Z,9.49
2023-04-21T03:17:43.582Z,9.45
2023-04-21T03:18:48.112Z,9.44
2023-04-21T03:19:52.205Z,9.39
2023-04-21T03:20:56.529Z,9.36
2023-04-21T03:22:00.616Z,9.32
2023-04-21T03:23:05.221Z,9.24
2023-04-21T03:24:09.344Z,9.21
2023-04-21T03:25:13.729Z,9.20
2023-04-21T03:26:18.310Z,9.22
2023-04-21T03:27:22.667Z,9.23
2023-04-21T03:28:27.212Z,9.22
2023-04-21T03:29:31.046Z,9.23
2023-04-21T03:30:35.690Z,9.22
2023-04-21T03:31:35.580Z,9.19
2023-04-21T03:32:39.987Z,9.20
2023-04-21T03:33:44.216Z,9.19
2023-04-21T03:34:48.586Z,9.16
2023-04-21T03:35:53.188Z,9.19
2023-04-21T03:36:57.514Z,9.20
2023-04-21T03:38:03.826Z,9.20
2023-04-21T03:39:19.202Z,9.21
2023-04-21T03:40:10.520Z,9.22
2023-04-21T03:41:14.852Z,9.21
2023-04-21T03:42:18.925Z,9.24
2023-04-21T03:43:23.269Z,9.28
2023-04-21T03:44:27.592Z,9.31
2023-04-21T03:45:32.194Z,9.33
2023-04-21T03:46:36.258Z,9.34
2023-04-21T03:47:40.902Z,9.32
2023-04-21T03:48:45.198Z,9.33
2023-04-21T03:49:46.052Z,9.30
2023-04-21T03:50:53.427Z,9.32
2023-04-21T03:51:57.499Z,9.30
2023-04-21T03:53:01.832Z,9.30
2023-04-21T03:54:06.446Z,9.30
2023-04-21T03:55:10.519Z,9.29
2023-04-21T03:56:14.832Z,9.29
2023-04-21T03:57:19.421Z,9.27
2023-04-21T03:58:23.768Z,9.24
2023-04-21T03:59:27.841Z,9.20
2023-04-21T04:00:32.177Z,9.17
2023-04-21T04:01:32.304Z,9.16
2023-04-21T04:02:36.723Z,9.16
2023-04-21T04:03:41.350Z,9.17
2023-04-21T04:04:45.584Z,9.17
2023-04-21T04:05:49.642Z,9.13
2023-04-21T04:06:54.249Z,9.14
2023-04-21T04:07:58.564Z,9.14
2023-04-21T04:09:03.179Z,9.13
2023-04-21T04:10:07.480Z,9.14
2023-04-21T04:11:11.807Z,9.11
2023-04-21T04:12:16.000Z,9.11
2023-04-21T04:13:20.082Z,9.13
2023-04-21T04:14:24.418Z,9.14
2023-04-21T04:15:28.758Z,9.11
2023-04-21T04:16:33.197Z,9.13
2023-04-21T04:17:37.991Z,9.14
2023-04-21T04:18:42.016Z,9.14
2023-04-21T04:19:46.093Z,9.15
2023-04-21T04:20:50.700Z,9.14
2023-04-21T04:21:55.032Z,9.11
2023-04-21T04:22:55.820Z,9.08
2023-04-21T04:24:03.189Z,9.09
2023-04-21T04:25:07.489Z,9.02
2023-04-21T04:26:11.573Z,9.02
2023-04-21T04:27:16.428Z,9.02
2023-04-21T04:28:20.505Z,9.00
2023-04-21T04:29:24.589Z,9.02
2023-04-21T04:30:29.182Z,9.04
2023-04-21T04:31:29.338Z,9.04
2023-04-21T04:32:33.650Z,9.07
2023-04-21T04:33:37.961Z,9.07
2023-04-21T04:34:42.294Z,9.07
2023-04-21T04:35:46.629Z,9.06
2023-04-21T04:36:50.952Z,9.08
2023-04-21T04:37:55.063Z,9.11
2023-04-21T04:38:59.644Z,9.14
2023-04-21T04:40:04.224Z,9.19
2023-04-21T04:41:08.294Z,9.23
2023-04-21T04:42:12.648Z,9.14
2023-04-21T04:43:16.994Z,9.21
2023-04-21T04:44:21.936Z,9.28
2023-04-21T04:45:25.700Z,9.34
2023-04-21T04:46:29.804Z,9.42
2023-04-21T04:47:34.406Z,9.51
2023-04-21T04:48:38.718Z,9.54
2023-04-21T04:49:43.042Z,9.52
2023-04-21T04:50:47.382Z,9.60
2023-04-21T04:51:51.450Z,9.65
2023-04-21T04:52:56.055Z,9.68
2023-04-21T04:54:00.133Z,9.73
2023-04-21T04:55:04.720Z,9.78
2023-04-21T04:56:09.045Z,9.82
2023-04-21T04:57:13.639Z,9.90
2023-04-21T04:58:18.337Z,9.97
2023-04-21T04:59:21.922Z,10.04
2023-04-21T05:00:26.233Z,10.05
2023-04-21T05:01:26.631Z,10.12
2023-04-21T05:02:31.114Z,10.20
2023-04-21T05:03:35.192Z,10.26
2023-04-21T05:04:39.826Z,10.38
2023-04-21T05:05:43.941Z,10.49
2023-04-21T05:06:48.026Z,10.66
2023-04-21T05:07:52.344Z,10.80
2023-04-21T05:08:56.938Z,11.04
2023-04-21T05:10:01.286Z,11.35
2023-04-21T05:11:05.346Z,11.63
2023-04-21T05:12:09.681Z,11.91
2023-04-21T05:13:14.042Z,12.16
2023-04-21T05:14:19.006Z,12.37
2023-04-21T05:15:22.348Z,12.54
2023-04-21T05:16:27.220Z,12.77
2023-04-21T05:17:31.819Z,12.98
2023-04-21T05:18:36.180Z,13.18
2023-04-21T05:19:40.284Z,13.24
2023-04-21T05:20:44.611Z,13.30
2023-04-21T05:21:49.219Z,13.31
2023-04-21T05:22:53.338Z,13.24
2023-04-21T05:23:57.721Z,13.14
2023-04-21T05:25:02.315Z,12.94
2023-04-21T05:26:06.684Z,12.82
2023-04-21T05:27:11.033Z,12.78
2023-04-21T05:28:15.139Z,13.03
2023-04-21T05:29:19.777Z,13.29
2023-04-21T05:30:24.140Z,13.55
2023-04-21T05:31:24.358Z,13.87
2023-04-21T05:32:28.560Z,13.96
2023-04-21T05:33:32.758Z,14.25
2023-04-21T05:34:37.387Z,14.65
2023-04-21T05:35:41.493Z,14.95
2023-04-21T05:36:45.830Z,15.21
2023-04-21T05:37:50.423Z,15.51
2023-04-21T05:38:54.745Z,15.84
2023-04-21T05:39:58.845Z,16.21
2023-04-21T05:41:03.181Z,16.47
2023-04-21T05:42:07.810Z,16.69
2023-04-21T05:43:12.171Z,16.73
2023-04-21T05:44:16.518Z,16.90
2023-04-21T05:45:20.831Z,17.23
2023-04-21T05:46:25.261Z,17.46
2023-04-21T05:47:29.799Z,17.57
2023-04-21T05:48:33.842Z,17.52
2023-04-21T05:49:38.188Z,17.11
2023-04-21T05:50:42.535Z,17.21
2023-04-21T05:51:46.632Z,17.58
2023-04-21T05:52:50.956Z,17.92
2023-04-21T05:53:55.307Z,18.19
2023-04-21T05:54:59.645Z,18.43
2023-04-21T05:56:04.497Z,18.34
2023-04-21T05:57:08.588Z,18.15
2023-04-21T05:58:12.665Z,18.52
2023-04-21T05:59:17.255Z,18.74
2023-04-21T06:00:21.605Z,18.87
2023-04-21T06:01:21.843Z,19.04
2023-04-21T06:02:26.031Z,19.31
2023-04-21T06:03:30.370Z,19.24
2023-04-21T06:04:35.115Z,19.32
2023-04-21T06:05:38.985Z,19.45
2023-04-21T06:06:43.267Z,19.51
2023-04-21T06:07:47.951Z,19.53
2023-04-21T06:08:52.229Z,19.86
2023-04-21T06:09:56.313Z,19.87
2023-04-21T06:11:00.654Z,19.37
2023-04-21T06:12:05.247Z,19.43
2023-04-21T06:13:09.590Z,19.02
2023-04-21T06:14:13.940Z,19.03
2023-04-21T06:15:18.300Z,19.26
2023-04-21T06:16:22.766Z,19.03
2023-04-21T06:17:27.316Z,18.64
2023-04-21T06:18:31.097Z,18.31
2023-04-21T06:19:35.673Z,18.44
2023-04-21T06:20:40.030Z,18.54
2023-04-21T06:21:44.344Z,18.91
2023-04-21T06:22:48.695Z,19.08
2023-04-21T06:23:53.044Z,19.04
2023-04-21T06:24:58.612Z,18.58
2023-04-21T06:26:01.981Z,18.38
2023-04-21T06:27:06.110Z,17.92
2023-04-21T06:28:10.168Z,17.60
2023-04-21T06:29:14.774Z,17.41
2023-04-21T06:30:19.136Z,17.37
2023-04-21T06:31:19.313Z,17.73
2023-04-21T06:32:23.647Z,17.66
2023-04-21T06:33:34.509Z,17.71
2023-04-21T06:34:32.322Z,17.46
2023-04-21T06:35:36.691Z,17.41
2023-04-21T06:36:41.276Z,17.26
2023-04-21T06:37:45.373Z,16.96
2023-04-21T06:38:49.699Z,16.73
2023-04-21T06:39:54.044Z,17.14
2023-04-21T06:40:58.165Z,17.72
2023-04-21T06:42:02.529Z,17.55
2023-04-21T06:43:06.835Z,17.71
2023-04-21T06:44:11.169Z,18.30
2023-04-21T06:45:15.823Z,18.60
2023-04-21T06:46:20.160Z,19.02
2023-04-21T06:47:24.758Z,19.39
2023-04-21T06:48:28.523Z,19.64
2023-04-21T06:49:32.872Z,19.95
2023-04-21T06:50:37.550Z,20.23
2023-04-21T06:51:41.895Z,20.36
2023-04-21T06:52:45.985Z,20.48
2023-04-21T06:53:50.576Z,20.83
2023-04-21T06:54:54.923Z,21.19
2023-04-21T06:55:59.275Z,21.37
2023-04-21T06:57:03.369Z,21.77
2023-04-21T06:58:07.730Z,21.95
2023-04-21T06:59:12.304Z,22.15
2023-04-21T07:00:16.388Z,22.46
2023-04-21T07:01:16.872Z,22.90
2023-04-21T07:02:23.934Z,22.96
2023-04-21T07:03:28.602Z,22.97
2023-04-21T07:04:27.198Z,23.26
2023-04-21T07:05:31.790Z,23.64
2023-04-21T07:06:36.101Z,23.68
2023-04-21T07:07:40.416Z,23.55
2023-04-21T07:08:44.779Z,23.10
2023-04-21T07:09:48.852Z,23.10
2023-04-21T07:10:53.857Z,23.22
2023-04-21T07:11:57.648Z,23.18
2023-04-21T07:13:02.013Z,23.11
2023-04-21T07:14:06.352Z,23.43
2023-04-21T07:15:10.688Z,23.57
2023-04-21T07:16:15.483Z,23.76
2023-04-21T07:17:19.647Z,23.70
2023-04-21T07:18:24.042Z,23.56
2023-04-21T07:19:29.125Z,23.58
2023-04-21T07:20:28.774Z,23.37
2023-04-21T07:21:32.931Z,23.49
2023-04-21T07:22:39.970Z,23.39
2023-04-21T07:23:39.103Z,22.98
2023-04-21T07:24:43.724Z,22.90
2023-04-21T07:25:47.813Z,22.56
2023-04-21T07:26:52.145Z,22.71
2023-04-21T07:27:56.764Z,22.99
2023-04-21T07:29:01.105Z,22.75
2023-04-21T07:30:05.696Z,23.05
2023-04-21T07:31:10.828Z,23.55
2023-04-21T07:32:15.166Z,23.85
2023-04-21T07:33:19.827Z,24.28
2023-04-21T07:34:23.661Z,24.76
2023-04-21T07:35:28.269Z,24.81
2023-04-21T07:36:32.611Z,25.00
2023-04-21T07:37:37.557Z,24.99
2023-04-21T07:38:41.583Z,25.41
2023-04-21T07:39:45.702Z,24.43
2023-04-21T07:40:50.027Z,24.06
2023-04-21T07:41:54.347Z,23.14
2023-04-21T07:42:58.697Z,22.43
2023-04-21T07:44:03.038Z,22.39
2023-04-21T07:45:07.397Z,22.10
2023-04-21T07:46:11.799Z,20.83
2023-04-21T07:47:16.725Z,20.66
2023-04-21T07:48:20.439Z,20.49
2023-04-21T07:49:24.770Z,20.18
2023-04-21T07:50:29.106Z,20.14
2023-04-21T07:51:33.442Z,20.29
2023-04-21T07:52:37.522Z,20.51
2023-04-21T07:53:41.885Z,19.60
2023-04-21T07:54:46.195Z,19.96
2023-04-21T07:55:50.783Z,20.73
2023-04-21T07:56:55.153Z,20.78
2023-04-21T07:57:59.221Z,20.41
2023-04-21T07:59:03.562Z,20.30
2023-04-21T08:00:07.914Z,20.39
2023-04-21T08:01:13.516Z,20.56
2023-04-21T08:02:17.651Z,20.94
2023-04-21T08:03:24.461Z,21.26
2023-04-21T08:04:26.644Z,21.81
2023-04-21T08:05:34.001Z,21.86
2023-04-21T08:06:34.965Z,21.26
2023-04-21T08:07:39.306Z,21.11
2023-04-21T08:08:43.894Z,20.86
2023-04-21T08:09:48.268Z,20.32
2023-04-21T08:11:00.340Z,20.35
2023-04-21T08:11:56.961Z,20.52
2023-04-21T08:13:01.010Z,19.82
2023-04-21T08:14:05.883Z,19.35
2023-04-21T08:15:09.968Z,20.24
2023-04-21T08:16:14.478Z,20.61
2023-04-21T08:17:18.390Z,20.23
2023-04-21T08:18:22.877Z,20.54
2023-04-21T08:19:27.354Z,20.68
2023-04-21T08:20:31.660Z,20.81
2023-04-21T08:21:36.016Z,20.47
2023-04-21T08:22:40.406Z,20.26
2023-04-21T08:23:44.720Z,20.09
2023-04-21T08:24:48.775Z,20.65
2023-04-21T08:25:53.404Z,21.22
2023-04-21T08:26:57.443Z,21.49
2023-04-21T08:28:02.046Z,21.65
2023-04-21T08:29:06.112Z,21.46
2023-04-21T08:30:10.709Z,21.38
2023-04-21T08:31:16.343Z,21.59
2023-04-21T08:32:20.408Z,22.21
2023-04-21T08:33:24.776Z,22.55
2023-04-21T08:34:29.100Z,22.87
2023-04-21T08:35:33.224Z,22.84
2023-04-21T08:36:37.830Z,21.68
2023-04-21T08:37:42.138Z,21.30
2023-04-21T08:38:46.484Z,21.71
2023-04-21T08:39:50.556Z,21.37
2023-04-21T08:40:55.463Z,21.24
2023-04-21T08:41:59.527Z,21.00
2023-04-21T08:43:03.887Z,20.87
2023-04-21T08:44:07.950Z,20.50
2023-04-21T08:45:12.572Z,19.89
2023-04-21T08:46:16.956Z,20.18
2023-04-21T08:47:20.993Z,20.84
2023-04-21T08:48:25.334Z,21.05
2023-04-21T08:49:29.923Z,21.42
2023-04-21T08:50:34.299Z,21.49
2023-04-21T08:51:38.337Z,22.20
2023-04-21T08:52:42.670Z,21.75
2023-04-21T08:53:47.270Z,21.80
2023-04-21T08:54:51.359Z,21.60
2023-04-21T08:56:07.688Z,21.43
2023-04-21T08:57:11.961Z,20.98
2023-04-21T08:58:04.381Z,20.70
2023-04-21T08:59:08.985Z,20.82
2023-04-21T09:00:13.330Z,20.90
2023-04-21T09:01:18.822Z,20.67
2023-04-21T09:02:23.151Z,21.07
2023-04-21T09:03:27.504Z,20.26
2023-04-21T09:04:31.894Z,20.25
2023-04-21T09:05:38.564Z,20.15
2023-04-21T09:06:40.723Z,19.93
2023-04-21T09:07:44.990Z,20.29
2023-04-21T09:08:49.078Z,20.10
2023-04-21T09:09:53.431Z,19.95
2023-04-21T09:10:57.494Z,20.51
2023-04-21T09:12:02.125Z,20.92
2023-04-21T09:13:06.457Z,21.17
2023-04-21T09:14:10.526Z,20.98
2023-04-21T09:15:14.883Z,21.04
2023-04-21T09:16:19.526Z,20.73
2023-04-21T09:17:23.850Z,20.73
2023-04-21T09:18:27.943Z,21.50
2023-04-21T09:19:32.274Z,22.49
2023-04-21T09:20:36.691Z,23.33
2023-04-21T09:21:40.962Z,24.04
2023-04-21T09:22:45.361Z,23.80
2023-04-21T09:23:49.668Z,23.75
2023-04-21T09:24:54.559Z,23.67
2023-04-21T09:25:58.877Z,23.86
2023-04-21T09:27:02.702Z,23.54
2023-04-21T09:28:07.325Z,23.41
2023-04-21T09:29:11.409Z,23.94
2023-04-21T09:30:16.020Z,23.84
2023-04-21T09:31:21.652Z,24.08
2023-04-21T09:32:25.450Z,24.00
2023-04-21T09:33:34.537Z,23.51
2023-04-21T09:34:34.630Z,24.28
2023-04-21T09:35:38.705Z,24.26
2023-04-21T09:36:43.026Z,23.25
2023-04-21T09:37:47.380Z,23.28
2023-04-21T09:38:58.846Z,22.78
2023-04-21T09:40:04.774Z,22.60
2023-04-21T09:41:00.147Z,23.14
2023-04-21T09:42:04.756Z,23.36
2023-04-21T09:43:09.111Z,22.69
2023-04-21T09:44:13.661Z,22.60
2023-04-21T09:46:21.852Z,22.47
2023-04-21T09:47:26.222Z,22.32
2023-04-21T09:48:30.770Z,21.98
2023-04-21T09:49:35.116Z,21.85
2023-04-21T09:51:22.107Z,22.44
2023-04-21T09:52:48.381Z,22.38
2023-04-21T09:53:52.463Z,22.80
2023-04-21T09:54:56.561Z,22.84
2023-04-21T09:56:00.931Z,23.40
2023-04-21T09:57:05.534Z,23.43
2023-04-21T09:58:09.600Z,23.29
2023-04-21T09:59:14.216Z,23.81
2023-04-21T10:00:18.537Z,23.65
2023-04-21T10:01:24.175Z,24.28
2023-04-21T10:02:28.171Z,22.98
2023-04-21T10:03:32.579Z,23.45
2023-04-21T10:04:40.132Z,22.92
2023-04-21T10:05:41.787Z,22.33
2023-04-21T10:06:43.457Z,21.80
2023-04-21T10:07:47.538Z,22.54
2023-04-21T10:08:52.137Z,22.74
2023-04-21T10:09:56.210Z,22.95
2023-04-21T10:11:00.805Z,22.99
2023-04-21T10:12:06.917Z,23.61
2023-04-21T10:13:09.227Z,22.60
2023-04-21T10:14:13.824Z,22.83
2023-04-21T10:15:18.317Z,22.35
2023-04-21T10:16:22.323Z,22.57
2023-04-21T10:17:27.045Z,22.60
2023-04-21T10:18:30.989Z,23.38
2023-04-21T10:19:35.611Z,23.64
2023-04-21T10:20:40.209Z,23.05
2023-04-21T10:21:44.045Z,22.44
2023-04-21T10:22:48.624Z,22.67
2023-04-21T10:23:52.969Z,22.20
2023-04-21T10:24:57.317Z,21.96
2023-04-21T10:26:01.381Z,22.02
2023-04-21T10:27:05.767Z,21.86
2023-04-21T10:28:10.342Z,22.27
2023-04-21T10:29:14.681Z,22.27
2023-04-21T10:30:19.030Z,22.08
2023-04-21T10:31:24.420Z,22.21
2023-04-21T10:32:28.485Z,21.66
2023-04-21T10:33:33.070Z,21.78
2023-04-21T10:34:37.142Z,21.70
2023-04-21T10:35:41.763Z,22.67
2023-04-21T10:36:46.094Z,22.82
2023-04-21T10:37:50.686Z,22.12
2023-04-21T10:38:55.043Z,22.50
2023-04-21T10:39:59.125Z,21.83
2023-04-21T10:41:03.447Z,21.86
2023-04-21T10:42:07.813Z,22.45
2023-04-21T10:43:12.119Z,22.22
2023-04-21T10:44:16.463Z,21.82
2023-04-21T10:45:20.548Z,21.76
2023-04-21T10:46:25.639Z,21.88
2023-04-21T10:47:29.510Z,21.83
2023-04-21T10:48:33.572Z,21.27
2023-04-21T10:49:38.175Z,20.72
2023-04-21T10:50:42.500Z,20.61
2023-04-21T10:51:46.843Z,20.79
2023-04-21T10:52:50.926Z,20.90
2023-04-21T10:53:55.293Z,20.37
2023-04-21T10:54:59.896Z,20.64
2023-04-21T10:56:04.248Z,21.13
2023-04-21T10:57:08.557Z,21.14
2023-04-21T10:58:12.656Z,21.47
2023-04-21T10:59:17.283Z,21.66
2023-04-21T11:00:21.624Z,22.05
2023-04-21T11:01:27.011Z,22.92
2023-04-21T11:02:31.447Z,23.04
2023-04-21T11:03:36.157Z,22.87
2023-04-21T11:04:40.116Z,22.19
2023-04-21T11:05:44.074Z,22.31
2023-04-21T11:06:48.673Z,21.69
2023-04-21T11:07:53.016Z,21.77
2023-04-21T11:08:57.114Z,22.20
2023-04-21T11:10:01.711Z,21.50
2023-04-21T11:11:06.035Z,21.73
2023-04-21T11:12:10.119Z,21.27
2023-04-21T11:13:14.984Z,21.32
2023-04-21T11:14:19.363Z,21.60
2023-04-21T11:15:23.154Z,21.77
2023-04-21T11:16:27.794Z,22.13
2023-04-21T11:17:32.127Z,21.82
2023-04-21T11:18:36.213Z,20.99
2023-04-21T11:19:40.772Z,20.67
2023-04-21T11:20:45.084Z,20.77
2023-04-21T11:21:49.174Z,20.52
2023-04-21T11:22:54.060Z,20.49
2023-04-21T11:23:57.882Z,20.00
2023-04-21T11:25:02.231Z,20.26
2023-04-21T11:26:06.834Z,20.69
2023-04-21T11:27:11.147Z,20.87
2023-04-21T11:28:15.512Z,21.24
2023-04-21T11:29:19.834Z,21.35
2023-04-21T11:30:24.213Z,21.44
2023-04-21T11:31:30.138Z,21.19
2023-04-21T11:32:35.649Z,20.74
2023-04-21T11:33:37.984Z,20.56
2023-04-21T11:34:42.363Z,20.61
2023-04-21T11:35:46.941Z,21.25
2023-04-21T11:36:51.023Z,21.16
2023-04-21T11:37:55.395Z,21.64
2023-04-21T11:38:59.726Z,21.85
2023-04-21T11:40:04.359Z,21.99
2023-04-21T11:41:08.703Z,21.43
2023-04-21T11:42:12.785Z,20.98
2023-04-21T11:43:17.373Z,20.59
2023-04-21T11:44:21.454Z,20.87
2023-04-21T11:45:25.810Z,20.95
2023-04-21T11:46:30.465Z,20.55
2023-04-21T11:47:34.513Z,21.14
2023-04-21T11:48:39.550Z,20.87
2023-04-21T11:49:43.433Z,20.53
2023-04-21T11:50:47.782Z,20.70
2023-04-21T11:51:52.106Z,20.85
2023-04-21T11:52:56.460Z,21.54
2023-04-21T11:54:00.824Z,21.55
2023-04-21T11:55:05.116Z,22.03
2023-04-21T11:56:09.462Z,22.35
2023-04-21T11:57:13.564Z,22.46
2023-04-21T11:58:18.407Z,22.62
2023-04-21T11:59:24.954Z,22.94
2023-04-21T12:00:26.838Z,22.87
2023-04-21T12:01:32.426Z,22.98
2023-04-21T12:02:36.388Z,23.26
2023-04-21T12:03:41.019Z,23.34
2023-04-21T12:05:59.515Z,22.66
2023-04-21T12:06:58.234Z,22.44
2023-04-21T12:08:02.557Z,22.62
2023-04-21T12:09:06.906Z,22.83
2023-04-21T12:10:11.221Z,23.15
2023-04-21T12:11:15.597Z,23.44
2023-04-21T12:12:19.938Z,23.87
2023-04-21T12:13:24.011Z,23.49
2023-04-21T12:14:28.349Z,23.03
2023-04-21T12:15:32.931Z,22.92
2023-04-21T12:16:37.049Z,22.88
2023-04-21T12:17:41.670Z,23.00
2023-04-21T12:18:46.197Z,23.14
2023-04-21T12:19:50.576Z,23.18
2023-04-21T12:20:54.640Z,23.02
2023-04-21T12:21:59.026Z,23.01
2023-04-21T12:23:03.059Z,22.44
2023-04-21T12:24:07.636Z,22.24
2023-04-21T12:25:12.329Z,21.56
2023-04-21T12:26:16.445Z,21.64
2023-04-21T12:27:20.747Z,21.12
2023-04-21T12:28:29.470Z,20.94
2023-04-21T12:29:29.381Z,21.21
2023-04-21T12:30:37.059Z,21.73
2023-04-21T12:31:37.330Z,21.62
2023-04-21T12:32:42.728Z,21.23
2023-04-21T12:33:47.103Z,21.00
2023-04-21T12:34:51.081Z,21.32
2023-04-21T12:35:51.471Z,21.52
2023-04-21T12:36:55.565Z,21.11
2023-04-21T12:38:02.904Z,21.07
2023-04-21T12:39:07.257Z,20.94
2023-04-21T12:40:05.866Z,21.09
2023-04-21T12:41:10.493Z,21.65
2023-04-21T12:42:23.830Z,22.27
2023-04-21T12:43:18.014Z,22.45
2023-04-21T12:44:22.353Z,22.26
2023-04-21T12:45:26.473Z,22.54
2023-04-21T12:46:30.812Z,22.28
2023-04-21T12:47:35.411Z,22.43
2023-04-21T12:48:39.477Z,22.48
2023-04-21T12:49:44.037Z,22.39
2023-04-21T12:50:48.607Z,22.29
2023-04-21T12:51:52.954Z,21.82
2023-04-21T12:52:56.777Z,21.36
2023-04-21T12:54:01.395Z,21.70
2023-04-21T12:55:05.447Z,21.75
2023-04-21T12:56:09.791Z,21.60
2023-04-21T12:57:14.388Z,20.90
2023-04-21T12:58:18.738Z,20.69
2023-04-21T12:59:23.084Z,20.45
2023-04-21T13:00:27.413Z,20.41
2023-04-21T13:01:31.864Z,20.53
2023-04-21T13:02:36.207Z,20.62
2023-04-21T13:03:40.588Z,20.48
2023-04-21T13:04:44.626Z,20.57
2023-04-21T13:05:45.770Z,20.49
2023-04-21T13:06:48.986Z,20.26
2023-04-21T13:07:53.339Z,20.04
2023-04-21T13:08:57.680Z,20.06
2023-04-21T13:10:02.039Z,19.97
2023-04-21T13:11:06.700Z,19.96
2023-04-21T13:12:11.179Z,19.85
2023-04-21T13:13:15.018Z,19.72
2023-04-21T13:14:19.345Z,19.58
2023-04-21T13:15:23.676Z,19.51
2023-04-21T13:16:30.212Z,19.47
2023-04-21T13:17:32.363Z,19.42
2023-04-21T13:18:36.695Z,19.64
2023-04-21T13:19:41.555Z,19.62
2023-04-21T13:20:45.635Z,19.62
2023-04-21T13:21:52.709Z,19.60
2023-04-21T13:22:54.290Z,19.59
2023-04-21T13:23:58.611Z,19.69
2023-04-21T13:25:02.957Z,19.74
2023-04-21T13:26:07.047Z,19.71
2023-04-21T13:27:11.357Z,19.80
2023-04-21T13:28:15.692Z,19.67
2023-04-21T13:29:20.272Z,19.63
2023-04-21T13:30:24.898Z,19.66
2023-04-21T13:31:28.727Z,19.89
2023-04-21T13:32:33.315Z,19.99
2023-04-21T13:33:37.617Z,20.19
2023-04-21T13:34:41.696Z,20.19
2023-04-21T13:35:41.810Z,20.30
2023-04-21T13:36:46.128Z,20.24
2023-04-21T13:37:50.728Z,20.14
2023-04-21T13:38:54.811Z,20.14
2023-04-21T13:39:59.393Z,19.77
2023-04-21T13:41:03.714Z,19.93
2023-04-21T13:42:08.333Z,19.90
2023-04-21T13:43:12.388Z,19.81
2023-04-21T13:44:16.484Z,19.91
2023-04-21T13:45:21.051Z,19.99
2023-04-21T13:46:25.171Z,20.17
2023-04-21T13:47:29.710Z,20.62
2023-04-21T13:48:33.860Z,20.72
2023-04-21T13:49:38.368Z,20.75
2023-04-21T13:50:42.710Z,20.65
2023-04-21T13:51:47.038Z,20.74
2023-04-21T13:52:51.105Z,20.76
2023-04-21T13:53:55.730Z,20.61
2023-04-21T13:55:00.058Z,20.62
2023-04-21T13:56:04.173Z,20.86
2023-04-21T13:57:08.772Z,20.91
2023-04-21T13:59:03.726Z,20.85
2023-04-21T14:00:08.072Z,21.03
2023-04-21T14:01:12.168Z,20.98